sensor_id;sensor_type;location;lat;lon;timestamp;P1;durP1;ratioP1;P2;durP2;ratioP2
20824;SDS011;10573;50.936;6.978;2024-01-30T00:00:34;12.70;;;8.57;;
20824;SDS011;10573;50.936;6.978;2024-01-30T00:03:00;12.40;;;8.50;;
20824;SDS011;10573;50.936;6.978;2024-01-30T00:05:25;11.93;;;8.33;;
20824;SDS011;10573;50.936;6.978;2024-01-30T00:07:50;11.67;;;8.57;;
20824;SDS011;10573;50.936;6.978;2024-01-30T00:10:16;12.80;;;8.67;;
20824;SDS011;10573;50.936;6.978;2024-01-30T00:12:41;14.27;;;8.87;;
20824;SDS011;10573;50.936;6.978;2024-01-30T00:15:06;13.87;;;8.90;;
20824;SDS011;10573;50.936;6.978;2024-01-30T00:17:34;14.55;;;9.07;;
20824;SDS011;10573;50.936;6.978;2024-01-30T00:20:02;12.38;;;8.48;;
20824;SDS011;10573;50.936;6.978;2024-01-30T00:22:31;13.15;;;8.48;;
20824;SDS011;10573;50.936;6.978;2024-01-30T00:24:57;13.73;;;9.15;;
20824;SDS011;10573;50.936;6.978;2024-01-30T00:27:22;14.23;;;9.03;;
20824;SDS011;10573;50.936;6.978;2024-01-30T00:29:49;13.70;;;8.77;;
20824;SDS011;10573;50.936;6.978;2024-01-30T00:32:14;15.17;;;8.97;;
20824;SDS011;10573;50.936;6.978;2024-01-30T00:34:39;13.57;;;9.20;;
20824;SDS011;10573;50.936;6.978;2024-01-30T00:37:05;12.70;;;8.50;;
20824;SDS011;10573;50.936;6.978;2024-01-30T00:39:30;14.77;;;8.83;;
20824;SDS011;10573;50.936;6.978;2024-01-30T00:41:56;13.77;;;8.97;;
20824;SDS011;10573;50.936;6.978;2024-01-30T00:44:21;12.27;;;8.87;;
20824;SDS011;10573;50.936;6.978;2024-01-30T00:46:46;13.07;;;9.00;;
20824;SDS011;10573;50.936;6.978;2024-01-30T00:49:12;15.97;;;9.37;;
20824;SDS011;10573;50.936;6.978;2024-01-30T00:51:37;12.77;;;8.80;;
20824;SDS011;10573;50.936;6.978;2024-01-30T00:54:02;14.60;;;8.50;;
20824;SDS011;10573;50.936;6.978;2024-01-30T00:56:28;13.50;;;8.53;;
20824;SDS011;10573;50.936;6.978;2024-01-30T00:58:53;15.60;;;8.80;;
20824;SDS011;10573;50.936;6.978;2024-01-30T01:01:19;14.97;;;9.47;;
20824;SDS011;10573;50.936;6.978;2024-01-30T01:03:45;16.60;;;9.43;;
20824;SDS011;10573;50.936;6.978;2024-01-30T01:06:10;13.80;;;8.87;;
20824;SDS011;10573;50.936;6.978;2024-01-30T01:08:36;14.70;;;9.18;;
20824;SDS011;10573;50.936;6.978;2024-01-30T01:11:01;13.70;;;8.50;;
20824;SDS011;10573;50.936;6.978;2024-01-30T01:13:28;12.20;;;8.50;;
20824;SDS011;10573;50.936;6.978;2024-01-30T01:15:54;12.03;;;8.13;;
20824;SDS011;10573;50.936;6.978;2024-01-30T01:18:20;12.73;;;8.73;;
20824;SDS011;10573;50.936;6.978;2024-01-30T01:20:45;14.40;;;8.53;;
20824;SDS011;10573;50.936;6.978;2024-01-30T01:23:11;14.20;;;8.73;;
20824;SDS011;10573;50.936;6.978;2024-01-30T01:25:36;13.73;;;8.77;;
20824;SDS011;10573;50.936;6.978;2024-01-30T01:28:01;13.10;;;8.47;;
20824;SDS011;10573;50.936;6.978;2024-01-30T01:30:27;12.23;;;8.73;;
20824;SDS011;10573;50.936;6.978;2024-01-30T01:32:54;17.17;;;9.05;;
20824;SDS011;10573;50.936;6.978;2024-01-30T01:35:26;14.93;;;8.80;;
20824;SDS011;10573;50.936;6.978;2024-01-30T01:37:52;13.68;;;8.85;;
20824;SDS011;10573;50.936;6.978;2024-01-30T01:40:26;12.52;;;8.50;;
20824;SDS011;10573;50.936;6.978;2024-01-30T01:42:53;14.40;;;8.38;;
20824;SDS011;10573;50.936;6.978;2024-01-30T01:45:20;13.27;;;8.57;;
20824;SDS011;10573;50.936;6.978;2024-01-30T01:47:54;13.38;;;8.90;;
20824;SDS011;10573;50.936;6.978;2024-01-30T01:50:20;14.82;;;8.82;;
20824;SDS011;10573;50.936;6.978;2024-01-30T01:52:47;15.15;;;8.60;;
20824;SDS011;10573;50.936;6.978;2024-01-30T01:55:14;13.82;;;8.43;;
20824;SDS011;10573;50.936;6.978;2024-01-30T01:57:41;12.88;;;8.48;;
20824;SDS011;10573;50.936;6.978;2024-01-30T02:00:07;12.25;;;8.40;;
20824;SDS011;10573;50.936;6.978;2024-01-30T02:02:35;11.38;;;8.07;;
20824;SDS011;10573;50.936;6.978;2024-01-30T02:05:04;13.77;;;8.80;;
20824;SDS011;10573;50.936;6.978;2024-01-30T02:07:30;11.10;;;8.25;;
20824;SDS011;10573;50.936;6.978;2024-01-30T02:09:56;14.33;;;8.30;;
20824;SDS011;10573;50.936;6.978;2024-01-30T02:12:21;13.33;;;8.10;;
20824;SDS011;10573;50.936;6.978;2024-01-30T02:14:47;12.40;;;8.30;;
20824;SDS011;10573;50.936;6.978;2024-01-30T02:17:13;12.70;;;8.45;;
20824;SDS011;10573;50.936;6.978;2024-01-30T02:19:39;12.63;;;8.30;;
20824;SDS011;10573;50.936;6.978;2024-01-30T02:22:05;12.37;;;7.80;;
20824;SDS011;10573;50.936;6.978;2024-01-30T02:24:30;12.63;;;8.30;;
20824;SDS011;10573;50.936;6.978;2024-01-30T02:26:56;11.10;;;7.93;;
20824;SDS011;10573;50.936;6.978;2024-01-30T02:29:21;11.40;;;8.27;;
20824;SDS011;10573;50.936;6.978;2024-01-30T02:31:47;12.87;;;7.97;;
20824;SDS011;10573;50.936;6.978;2024-01-30T02:34:13;13.97;;;8.60;;
20824;SDS011;10573;50.936;6.978;2024-01-30T02:36:38;12.88;;;8.60;;
20824;SDS011;10573;50.936;6.978;2024-01-30T02:39:07;15.90;;;8.60;;
20824;SDS011;10573;50.936;6.978;2024-01-30T02:41:33;12.83;;;8.33;;
20824;SDS011;10573;50.936;6.978;2024-01-30T02:43:58;12.17;;;7.83;;
20824;SDS011;10573;50.936;6.978;2024-01-30T02:46:23;14.50;;;8.67;;
20824;SDS011;10573;50.936;6.978;2024-01-30T02:48:49;11.82;;;8.35;;
20824;SDS011;10573;50.936;6.978;2024-01-30T02:51:14;16.30;;;8.33;;
20824;SDS011;10573;50.936;6.978;2024-01-30T02:53:40;12.57;;;8.27;;
20824;SDS011;10573;50.936;6.978;2024-01-30T02:56:05;10.60;;;7.93;;
20824;SDS011;10573;50.936;6.978;2024-01-30T02:58:31;11.07;;;8.00;;
20824;SDS011;10573;50.936;6.978;2024-01-30T03:00:56;12.03;;;8.13;;
20824;SDS011;10573;50.936;6.978;2024-01-30T03:03:21;12.43;;;8.60;;
20824;SDS011;10573;50.936;6.978;2024-01-30T03:05:47;13.97;;;8.30;;
20824;SDS011;10573;50.936;6.978;2024-01-30T03:08:12;12.33;;;8.03;;
20824;SDS011;10573;50.936;6.978;2024-01-30T03:10:37;10.53;;;7.40;;
20824;SDS011;10573;50.936;6.978;2024-01-30T03:13:03;11.70;;;7.68;;
20824;SDS011;10573;50.936;6.978;2024-01-30T03:15:28;15.43;;;8.03;;
20824;SDS011;10573;50.936;6.978;2024-01-30T03:17:54;10.80;;;7.57;;
20824;SDS011;10573;50.936;6.978;2024-01-30T03:20:19;11.15;;;7.70;;
20824;SDS011;10573;50.936;6.978;2024-01-30T03:22:44;11.90;;;7.80;;
20824;SDS011;10573;50.936;6.978;2024-01-30T03:25:10;11.98;;;8.43;;
20824;SDS011;10573;50.936;6.978;2024-01-30T03:27:35;10.50;;;7.70;;
20824;SDS011;10573;50.936;6.978;2024-01-30T03:30:01;9.83;;;7.70;;
20824;SDS011;10573;50.936;6.978;2024-01-30T03:32:26;13.18;;;7.70;;
20824;SDS011;10573;50.936;6.978;2024-01-30T03:34:52;13.33;;;7.67;;
20824;SDS011;10573;50.936;6.978;2024-01-30T03:37:17;10.60;;;7.80;;
20824;SDS011;10573;50.936;6.978;2024-01-30T03:39:42;11.70;;;7.85;;
20824;SDS011;10573;50.936;6.978;2024-01-30T03:42:08;10.90;;;7.33;;
20824;SDS011;10573;50.936;6.978;2024-01-30T03:44:33;11.98;;;7.90;;
20824;SDS011;10573;50.936;6.978;2024-01-30T03:46:59;12.13;;;8.00;;
20824;SDS011;10573;50.936;6.978;2024-01-30T03:49:24;12.00;;;7.70;;
20824;SDS011;10573;50.936;6.978;2024-01-30T03:51:49;12.03;;;7.40;;
20824;SDS011;10573;50.936;6.978;2024-01-30T03:54:15;12.90;;;7.30;;
20824;SDS011;10573;50.936;6.978;2024-01-30T03:56:41;10.85;;;7.03;;
20824;SDS011;10573;50.936;6.978;2024-01-30T03:59:06;11.60;;;7.53;;
20824;SDS011;10573;50.936;6.978;2024-01-30T04:01:32;10.55;;;7.45;;
20824;SDS011;10573;50.936;6.978;2024-01-30T04:03:58;14.20;;;7.97;;
20824;SDS011;10573;50.936;6.978;2024-01-30T04:06:24;10.38;;;7.25;;
20824;SDS011;10573;50.936;6.978;2024-01-30T04:08:49;11.83;;;7.90;;
20824;SDS011;10573;50.936;6.978;2024-01-30T04:11:14;11.67;;;7.80;;
20824;SDS011;10573;50.936;6.978;2024-01-30T04:13:40;13.02;;;8.40;;
20824;SDS011;10573;50.936;6.978;2024-01-30T04:16:07;11.57;;;8.13;;
20824;SDS011;10573;50.936;6.978;2024-01-30T04:18:33;11.33;;;8.10;;
20824;SDS011;10573;50.936;6.978;2024-01-30T04:20:59;12.35;;;8.60;;
20824;SDS011;10573;50.936;6.978;2024-01-30T04:23:24;14.93;;;9.07;;
20824;SDS011;10573;50.936;6.978;2024-01-30T04:25:49;11.37;;;8.40;;
20824;SDS011;10573;50.936;6.978;2024-01-30T04:28:15;12.50;;;8.43;;
20824;SDS011;10573;50.936;6.978;2024-01-30T04:30:40;16.02;;;9.27;;
20824;SDS011;10573;50.936;6.978;2024-01-30T04:33:06;13.37;;;8.30;;
20824;SDS011;10573;50.936;6.978;2024-01-30T04:35:31;13.20;;;8.80;;
20824;SDS011;10573;50.936;6.978;2024-01-30T04:37:57;11.85;;;8.32;;
20824;SDS011;10573;50.936;6.978;2024-01-30T04:40:22;14.20;;;8.27;;
20824;SDS011;10573;50.936;6.978;2024-01-30T04:42:47;13.88;;;8.57;;
20824;SDS011;10573;50.936;6.978;2024-01-30T04:45:13;13.10;;;8.50;;
20824;SDS011;10573;50.936;6.978;2024-01-30T04:47:38;13.50;;;8.87;;
20824;SDS011;10573;50.936;6.978;2024-01-30T04:50:04;13.90;;;8.82;;
20824;SDS011;10573;50.936;6.978;2024-01-30T04:52:31;11.00;;;8.70;;
20824;SDS011;10573;50.936;6.978;2024-01-30T04:54:57;13.83;;;8.83;;
20824;SDS011;10573;50.936;6.978;2024-01-30T04:57:22;18.47;;;9.03;;
20824;SDS011;10573;50.936;6.978;2024-01-30T04:59:48;11.70;;;8.82;;
20824;SDS011;10573;50.936;6.978;2024-01-30T05:02:13;11.63;;;8.70;;
20824;SDS011;10573;50.936;6.978;2024-01-30T05:04:40;14.20;;;9.00;;
20824;SDS011;10573;50.936;6.978;2024-01-30T05:07:06;14.50;;;8.87;;
20824;SDS011;10573;50.936;6.978;2024-01-30T05:09:31;12.37;;;9.10;;
20824;SDS011;10573;50.936;6.978;2024-01-30T05:11:56;14.80;;;9.30;;
20824;SDS011;10573;50.936;6.978;2024-01-30T05:14:24;15.60;;;9.43;;
20824;SDS011;10573;50.936;6.978;2024-01-30T05:16:50;14.73;;;9.30;;
20824;SDS011;10573;50.936;6.978;2024-01-30T05:19:15;12.17;;;8.80;;
20824;SDS011;10573;50.936;6.978;2024-01-30T05:21:41;12.70;;;9.03;;
20824;SDS011;10573;50.936;6.978;2024-01-30T05:24:06;13.47;;;8.93;;
20824;SDS011;10573;50.936;6.978;2024-01-30T05:26:32;11.13;;;8.80;;
20824;SDS011;10573;50.936;6.978;2024-01-30T05:28:57;12.90;;;8.93;;
20824;SDS011;10573;50.936;6.978;2024-01-30T05:31:23;18.27;;;9.18;;
20824;SDS011;10573;50.936;6.978;2024-01-30T05:33:51;13.32;;;9.38;;
20824;SDS011;10573;50.936;6.978;2024-01-30T05:36:16;12.83;;;9.10;;
20824;SDS011;10573;50.936;6.978;2024-01-30T05:38:42;13.87;;;8.87;;
20824;SDS011;10573;50.936;6.978;2024-01-30T05:41:08;13.63;;;9.13;;
20824;SDS011;10573;50.936;6.978;2024-01-30T05:43:33;13.55;;;9.40;;
20824;SDS011;10573;50.936;6.978;2024-01-30T05:45:59;15.00;;;9.17;;
20824;SDS011;10573;50.936;6.978;2024-01-30T05:48:24;12.77;;;9.50;;
20824;SDS011;10573;50.936;6.978;2024-01-30T05:50:50;11.97;;;8.63;;
20824;SDS011;10573;50.936;6.978;2024-01-30T05:53:15;12.73;;;9.03;;
20824;SDS011;10573;50.936;6.978;2024-01-30T05:55:41;14.37;;;9.03;;
20824;SDS011;10573;50.936;6.978;2024-01-30T05:58:06;11.43;;;8.60;;
20824;SDS011;10573;50.936;6.978;2024-01-30T06:00:32;13.20;;;8.80;;
20824;SDS011;10573;50.936;6.978;2024-01-30T06:02:57;11.95;;;8.75;;
20824;SDS011;10573;50.936;6.978;2024-01-30T06:05:22;12.63;;;8.87;;
20824;SDS011;10573;50.936;6.978;2024-01-30T06:07:48;15.95;;;9.10;;
20824;SDS011;10573;50.936;6.978;2024-01-30T06:10:13;15.27;;;9.07;;
20824;SDS011;10573;50.936;6.978;2024-01-30T06:12:41;12.97;;;8.57;;
20824;SDS011;10573;50.936;6.978;2024-01-30T06:15:07;14.80;;;8.98;;
20824;SDS011;10573;50.936;6.978;2024-01-30T06:17:33;13.82;;;9.13;;
20824;SDS011;10573;50.936;6.978;2024-01-30T06:19:58;12.77;;;8.67;;
20824;SDS011;10573;50.936;6.978;2024-01-30T06:22:24;12.50;;;9.00;;
20824;SDS011;10573;50.936;6.978;2024-01-30T06:24:49;12.30;;;9.40;;
20824;SDS011;10573;50.936;6.978;2024-01-30T06:27:15;13.53;;;8.47;;
20824;SDS011;10573;50.936;6.978;2024-01-30T06:29:41;14.37;;;9.33;;
20824;SDS011;10573;50.936;6.978;2024-01-30T06:32:08;15.57;;;9.27;;
20824;SDS011;10573;50.936;6.978;2024-01-30T06:34:34;12.60;;;8.45;;
20824;SDS011;10573;50.936;6.978;2024-01-30T06:36:59;13.32;;;8.93;;
20824;SDS011;10573;50.936;6.978;2024-01-30T06:39:25;12.23;;;8.50;;
20824;SDS011;10573;50.936;6.978;2024-01-30T06:41:52;15.63;;;8.93;;
20824;SDS011;10573;50.936;6.978;2024-01-30T06:44:17;16.00;;;8.93;;
20824;SDS011;10573;50.936;6.978;2024-01-30T06:46:43;14.83;;;9.13;;
20824;SDS011;10573;50.936;6.978;2024-01-30T06:49:09;13.90;;;8.93;;
20824;SDS011;10573;50.936;6.978;2024-01-30T06:51:34;13.80;;;9.20;;
20824;SDS011;10573;50.936;6.978;2024-01-30T06:53:59;12.43;;;8.77;;
20824;SDS011;10573;50.936;6.978;2024-01-30T06:56:25;14.30;;;9.30;;
20824;SDS011;10573;50.936;6.978;2024-01-30T06:58:50;15.07;;;9.40;;
20824;SDS011;10573;50.936;6.978;2024-01-30T07:01:17;11.87;;;9.13;;
20824;SDS011;10573;50.936;6.978;2024-01-30T07:03:43;13.43;;;9.50;;
20824;SDS011;10573;50.936;6.978;2024-01-30T07:06:09;13.93;;;8.90;;
20824;SDS011;10573;50.936;6.978;2024-01-30T07:08:37;13.03;;;9.03;;
20824;SDS011;10573;50.936;6.978;2024-01-30T07:11:07;9.88;;;8.52;;
20824;SDS011;10573;50.936;6.978;2024-01-30T07:13:33;15.00;;;9.25;;
20824;SDS011;10573;50.936;6.978;2024-01-30T07:15:59;11.73;;;8.30;;
20824;SDS011;10573;50.936;6.978;2024-01-30T07:18:24;12.30;;;8.47;;
20824;SDS011;10573;50.936;6.978;2024-01-30T07:20:50;10.97;;;8.57;;
20824;SDS011;10573;50.936;6.978;2024-01-30T07:23:16;14.05;;;8.98;;
20824;SDS011;10573;50.936;6.978;2024-01-30T07:25:45;12.90;;;8.98;;
20824;SDS011;10573;50.936;6.978;2024-01-30T07:28:13;13.70;;;9.10;;
20824;SDS011;10573;50.936;6.978;2024-01-30T07:30:41;13.05;;;8.57;;
20824;SDS011;10573;50.936;6.978;2024-01-30T07:33:07;12.93;;;8.43;;
20824;SDS011;10573;50.936;6.978;2024-01-30T07:35:33;15.73;;;8.77;;
20824;SDS011;10573;50.936;6.978;2024-01-30T07:38:00;12.15;;;8.43;;
20824;SDS011;10573;50.936;6.978;2024-01-30T07:40:26;15.53;;;8.73;;
20824;SDS011;10573;50.936;6.978;2024-01-30T07:42:53;13.50;;;8.40;;
20824;SDS011;10573;50.936;6.978;2024-01-30T07:45:19;13.30;;;8.65;;
20824;SDS011;10573;50.936;6.978;2024-01-30T07:47:48;15.05;;;9.05;;
20824;SDS011;10573;50.936;6.978;2024-01-30T07:50:14;11.52;;;8.80;;
20824;SDS011;10573;50.936;6.978;2024-01-30T07:52:39;12.85;;;8.38;;
20824;SDS011;10573;50.936;6.978;2024-01-30T07:55:05;11.53;;;8.50;;
20824;SDS011;10573;50.936;6.978;2024-01-30T07:57:32;14.38;;;8.90;;
20824;SDS011;10573;50.936;6.978;2024-01-30T07:59:59;13.27;;;8.85;;
20824;SDS011;10573;50.936;6.978;2024-01-30T08:02:24;14.48;;;8.63;;
20824;SDS011;10573;50.936;6.978;2024-01-30T08:04:50;12.33;;;8.20;;
20824;SDS011;10573;50.936;6.978;2024-01-30T08:07:15;11.93;;;8.50;;
20824;SDS011;10573;50.936;6.978;2024-01-30T08:09:42;16.25;;;8.15;;
20824;SDS011;10573;50.936;6.978;2024-01-30T08:12:08;15.85;;;8.95;;
20824;SDS011;10573;50.936;6.978;2024-01-30T08:14:33;12.43;;;7.68;;
20824;SDS011;10573;50.936;6.978;2024-01-30T08:16:59;12.43;;;7.93;;
20824;SDS011;10573;50.936;6.978;2024-01-30T08:19:24;12.97;;;8.27;;
20824;SDS011;10573;50.936;6.978;2024-01-30T08:21:50;14.53;;;8.20;;
20824;SDS011;10573;50.936;6.978;2024-01-30T08:24:15;13.33;;;8.53;;
20824;SDS011;10573;50.936;6.978;2024-01-30T08:26:40;11.60;;;8.00;;
20824;SDS011;10573;50.936;6.978;2024-01-30T08:29:06;12.77;;;7.67;;
20824;SDS011;10573;50.936;6.978;2024-01-30T08:31:31;10.63;;;7.47;;
20824;SDS011;10573;50.936;6.978;2024-01-30T08:33:57;13.43;;;8.33;;
20824;SDS011;10573;50.936;6.978;2024-01-30T08:36:22;13.53;;;9.07;;
20824;SDS011;10573;50.936;6.978;2024-01-30T08:38:48;10.38;;;7.22;;
20824;SDS011;10573;50.936;6.978;2024-01-30T08:41:13;13.37;;;8.80;;
20824;SDS011;10573;50.936;6.978;2024-01-30T08:43:38;14.27;;;8.40;;
20824;SDS011;10573;50.936;6.978;2024-01-30T08:46:04;12.43;;;8.13;;
20824;SDS011;10573;50.936;6.978;2024-01-30T08:48:29;13.07;;;8.27;;
20824;SDS011;10573;50.936;6.978;2024-01-30T08:50:55;10.60;;;7.47;;
20824;SDS011;10573;50.936;6.978;2024-01-30T08:53:20;12.53;;;7.57;;
20824;SDS011;10573;50.936;6.978;2024-01-30T08:55:46;12.03;;;7.87;;
20824;SDS011;10573;50.936;6.978;2024-01-30T08:58:12;14.00;;;7.93;;
20824;SDS011;10573;50.936;6.978;2024-01-30T09:00:37;10.65;;;8.30;;
20824;SDS011;10573;50.936;6.978;2024-01-30T09:03:03;13.98;;;8.50;;
20824;SDS011;10573;50.936;6.978;2024-01-30T09:05:29;12.60;;;8.73;;
20824;SDS011;10573;50.936;6.978;2024-01-30T09:07:54;12.38;;;8.57;;
20824;SDS011;10573;50.936;6.978;2024-01-30T09:10:20;12.87;;;8.80;;
20824;SDS011;10573;50.936;6.978;2024-01-30T09:12:45;13.20;;;8.23;;
20824;SDS011;10573;50.936;6.978;2024-01-30T09:15:11;12.75;;;8.88;;
20824;SDS011;10573;50.936;6.978;2024-01-30T09:17:37;12.10;;;8.50;;
20824;SDS011;10573;50.936;6.978;2024-01-30T09:20:02;15.07;;;8.60;;
20824;SDS011;10573;50.936;6.978;2024-01-30T09:22:28;14.97;;;8.93;;
20824;SDS011;10573;50.936;6.978;2024-01-30T09:24:54;12.87;;;8.30;;
20824;SDS011;10573;50.936;6.978;2024-01-30T09:27:19;11.37;;;7.90;;
20824;SDS011;10573;50.936;6.978;2024-01-30T09:29:45;12.17;;;8.03;;
20824;SDS011;10573;50.936;6.978;2024-01-30T09:32:10;13.63;;;8.23;;
20824;SDS011;10573;50.936;6.978;2024-01-30T09:34:37;10.93;;;7.90;;
20824;SDS011;10573;50.936;6.978;2024-01-30T09:37:04;12.23;;;7.93;;
20824;SDS011;10573;50.936;6.978;2024-01-30T09:39:29;11.10;;;7.65;;
20824;SDS011;10573;50.936;6.978;2024-01-30T09:42:01;14.47;;;8.60;;
20824;SDS011;10573;50.936;6.978;2024-01-30T09:44:30;11.55;;;7.93;;
20824;SDS011;10573;50.936;6.978;2024-01-30T09:46:57;12.93;;;7.90;;
20824;SDS011;10573;50.936;6.978;2024-01-30T09:49:28;12.25;;;7.88;;
20824;SDS011;10573;50.936;6.978;2024-01-30T09:51:56;12.93;;;7.35;;
20824;SDS011;10573;50.936;6.978;2024-01-30T09:54:21;14.13;;;7.90;;
20824;SDS011;10573;50.936;6.978;2024-01-30T09:56:47;9.45;;;7.30;;
20824;SDS011;10573;50.936;6.978;2024-01-30T09:59:13;11.10;;;7.77;;
20824;SDS011;10573;50.936;6.978;2024-01-30T10:01:38;12.87;;;7.93;;
20824;SDS011;10573;50.936;6.978;2024-01-30T10:04:05;11.80;;;7.97;;
20824;SDS011;10573;50.936;6.978;2024-01-30T10:06:32;10.73;;;7.90;;
20824;SDS011;10573;50.936;6.978;2024-01-30T10:08:59;12.65;;;7.63;;
20824;SDS011;10573;50.936;6.978;2024-01-30T10:11:24;10.57;;;7.93;;
20824;SDS011;10573;50.936;6.978;2024-01-30T10:13:49;11.60;;;7.75;;
20824;SDS011;10573;50.936;6.978;2024-01-30T10:16:15;12.27;;;7.73;;
20824;SDS011;10573;50.936;6.978;2024-01-30T10:18:42;13.75;;;7.60;;
20824;SDS011;10573;50.936;6.978;2024-01-30T10:21:08;12.52;;;8.27;;
20824;SDS011;10573;50.936;6.978;2024-01-30T10:23:34;12.30;;;7.68;;
20824;SDS011;10573;50.936;6.978;2024-01-30T10:26:00;20.03;;;13.30;;
20824;SDS011;10573;50.936;6.978;2024-01-30T10:28:28;14.83;;;8.33;;
20824;SDS011;10573;50.936;6.978;2024-01-30T10:30:57;12.57;;;7.95;;
20824;SDS011;10573;50.936;6.978;2024-01-30T10:33:24;14.15;;;8.20;;
20824;SDS011;10573;50.936;6.978;2024-01-30T10:35:50;15.80;;;9.02;;
20824;SDS011;10573;50.936;6.978;2024-01-30T10:38:16;10.98;;;7.90;;
20824;SDS011;10573;50.936;6.978;2024-01-30T10:40:45;14.82;;;8.63;;
20824;SDS011;10573;50.936;6.978;2024-01-30T10:43:12;14.55;;;8.57;;
20824;SDS011;10573;50.936;6.978;2024-01-30T10:45:40;15.38;;;8.13;;
20824;SDS011;10573;50.936;6.978;2024-01-30T10:48:10;11.65;;;7.25;;
20824;SDS011;10573;50.936;6.978;2024-01-30T10:50:37;12.25;;;7.63;;
20824;SDS011;10573;50.936;6.978;2024-01-30T10:53:05;9.57;;;7.45;;
20824;SDS011;10573;50.936;6.978;2024-01-30T10:55:33;11.63;;;7.32;;
20824;SDS011;10573;50.936;6.978;2024-01-30T10:58:00;11.38;;;6.85;;
20824;SDS011;10573;50.936;6.978;2024-01-30T11:00:26;11.87;;;7.50;;
20824;SDS011;10573;50.936;6.978;2024-01-30T11:02:52;13.57;;;7.65;;
20824;SDS011;10573;50.936;6.978;2024-01-30T11:05:24;10.23;;;7.00;;
20824;SDS011;10573;50.936;6.978;2024-01-30T11:07:51;11.23;;;7.20;;
20824;SDS011;10573;50.936;6.978;2024-01-30T11:10:17;12.93;;;6.83;;
20824;SDS011;10573;50.936;6.978;2024-01-30T11:12:42;11.83;;;7.20;;
20824;SDS011;10573;50.936;6.978;2024-01-30T11:15:10;10.23;;;7.35;;
20824;SDS011;10573;50.936;6.978;2024-01-30T11:20:47;10.27;;;6.88;;
20824;SDS011;10573;50.936;6.978;2024-01-30T11:23:11;11.32;;;7.35;;
20824;SDS011;10573;50.936;6.978;2024-01-30T11:25:37;11.30;;;7.07;;
20824;SDS011;10573;50.936;6.978;2024-01-30T11:28:03;11.93;;;7.03;;
20824;SDS011;10573;50.936;6.978;2024-01-30T11:30:29;12.57;;;6.80;;
20824;SDS011;10573;50.936;6.978;2024-01-30T11:33:06;10.47;;;6.83;;
20824;SDS011;10573;50.936;6.978;2024-01-30T11:35:36;9.48;;;6.72;;
20824;SDS011;10573;50.936;6.978;2024-01-30T11:38:05;13.35;;;7.07;;
20824;SDS011;10573;50.936;6.978;2024-01-30T11:40:32;12.43;;;7.03;;
20824;SDS011;10573;50.936;6.978;2024-01-30T11:42:59;10.13;;;6.80;;
20824;SDS011;10573;50.936;6.978;2024-01-30T11:45:28;9.55;;;6.40;;
20824;SDS011;10573;50.936;6.978;2024-01-30T11:47:54;14.23;;;6.60;;
20824;SDS011;10573;50.936;6.978;2024-01-30T11:50:20;10.95;;;6.53;;
20824;SDS011;10573;50.936;6.978;2024-01-30T11:52:47;9.80;;;6.77;;
20824;SDS011;10573;50.936;6.978;2024-01-30T11:55:13;12.02;;;6.88;;
20824;SDS011;10573;50.936;6.978;2024-01-30T11:57:39;10.32;;;6.68;;
20824;SDS011;10573;50.936;6.978;2024-01-30T12:00:05;9.53;;;6.77;;
20824;SDS011;10573;50.936;6.978;2024-01-30T12:02:41;13.80;;;6.22;;
20824;SDS011;10573;50.936;6.978;2024-01-30T12:05:07;10.10;;;6.57;;
20824;SDS011;10573;50.936;6.978;2024-01-30T12:07:34;8.63;;;6.70;;
20824;SDS011;10573;50.936;6.978;2024-01-30T12:10:00;11.52;;;6.75;;
20824;SDS011;10573;50.936;6.978;2024-01-30T12:12:26;8.95;;;5.95;;
20824;SDS011;10573;50.936;6.978;2024-01-30T12:14:53;10.93;;;6.85;;
20824;SDS011;10573;50.936;6.978;2024-01-30T12:17:30;11.15;;;6.97;;
20824;SDS011;10573;50.936;6.978;2024-01-30T12:20:09;9.80;;;6.30;;
20824;SDS011;10573;50.936;6.978;2024-01-30T12:22:37;10.70;;;6.60;;
20824;SDS011;10573;50.936;6.978;2024-01-30T12:25:04;11.07;;;6.03;;
20824;SDS011;10573;50.936;6.978;2024-01-30T12:27:33;10.30;;;6.10;;
20824;SDS011;10573;50.936;6.978;2024-01-30T12:29:59;10.97;;;6.20;;
20824;SDS011;10573;50.936;6.978;2024-01-30T12:32:25;12.77;;;5.90;;
20824;SDS011;10573;50.936;6.978;2024-01-30T12:34:54;13.32;;;6.30;;
20824;SDS011;10573;50.936;6.978;2024-01-30T12:37:22;10.55;;;5.93;;
20824;SDS011;10573;50.936;6.978;2024-01-30T12:39:49;10.07;;;6.30;;
20824;SDS011;10573;50.936;6.978;2024-01-30T12:42:16;8.75;;;5.80;;
20824;SDS011;10573;50.936;6.978;2024-01-30T12:44:41;11.10;;;6.38;;
20824;SDS011;10573;50.936;6.978;2024-01-30T12:47:08;9.73;;;6.17;;
20824;SDS011;10573;50.936;6.978;2024-01-30T12:49:34;10.63;;;6.00;;
20824;SDS011;10573;50.936;6.978;2024-01-30T12:52:00;10.52;;;5.95;;
20824;SDS011;10573;50.936;6.978;2024-01-30T12:54:26;9.73;;;5.70;;
20824;SDS011;10573;50.936;6.978;2024-01-30T12:56:51;9.23;;;6.17;;
20824;SDS011;10573;50.936;6.978;2024-01-30T12:59:17;12.80;;;6.30;;
20824;SDS011;10573;50.936;6.978;2024-01-30T13:01:42;10.77;;;6.57;;
20824;SDS011;10573;50.936;6.978;2024-01-30T13:04:09;13.00;;;6.10;;
20824;SDS011;10573;50.936;6.978;2024-01-30T13:06:34;8.87;;;5.77;;
20824;SDS011;10573;50.936;6.978;2024-01-30T13:09:00;10.88;;;6.00;;
20824;SDS011;10573;50.936;6.978;2024-01-30T13:11:25;9.10;;;6.47;;
20824;SDS011;10573;50.936;6.978;2024-01-30T13:13:51;10.32;;;6.03;;
20824;SDS011;10573;50.936;6.978;2024-01-30T13:16:17;9.77;;;5.80;;
20824;SDS011;10573;50.936;6.978;2024-01-30T13:18:43;11.87;;;6.50;;
20824;SDS011;10573;50.936;6.978;2024-01-30T13:21:09;12.63;;;6.18;;
20824;SDS011;10573;50.936;6.978;2024-01-30T13:23:35;11.52;;;5.97;;
20824;SDS011;10573;50.936;6.978;2024-01-30T13:26:00;9.67;;;5.73;;
20824;SDS011;10573;50.936;6.978;2024-01-30T13:28:26;10.02;;;6.07;;
20824;SDS011;10573;50.936;6.978;2024-01-30T13:30:51;12.10;;;6.40;;
20824;SDS011;10573;50.936;6.978;2024-01-30T13:33:17;12.43;;;6.80;;
20824;SDS011;10573;50.936;6.978;2024-01-30T13:35:43;13.48;;;6.65;;
20824;SDS011;10573;50.936;6.978;2024-01-30T13:38:08;15.37;;;6.93;;
20824;SDS011;10573;50.936;6.978;2024-01-30T13:40:34;12.47;;;6.43;;
20824;SDS011;10573;50.936;6.978;2024-01-30T13:43:00;13.70;;;6.80;;
20824;SDS011;10573;50.936;6.978;2024-01-30T13:45:25;15.53;;;6.90;;
20824;SDS011;10573;50.936;6.978;2024-01-30T13:47:51;15.30;;;7.00;;
20824;SDS011;10573;50.936;6.978;2024-01-30T13:50:16;12.07;;;7.22;;
20824;SDS011;10573;50.936;6.978;2024-01-30T13:52:42;13.47;;;6.70;;
20824;SDS011;10573;50.936;6.978;2024-01-30T13:55:09;14.20;;;7.60;;
20824;SDS011;10573;50.936;6.978;2024-01-30T13:57:35;15.13;;;6.22;;
20824;SDS011;10573;50.936;6.978;2024-01-30T14:00:02;13.57;;;5.70;;
20824;SDS011;10573;50.936;6.978;2024-01-30T14:02:31;11.20;;;5.63;;
20824;SDS011;10573;50.936;6.978;2024-01-30T14:04:57;10.07;;;5.60;;
20824;SDS011;10573;50.936;6.978;2024-01-30T14:07:23;13.00;;;6.73;;
20824;SDS011;10573;50.936;6.978;2024-01-30T14:09:48;13.82;;;6.20;;
20824;SDS011;10573;50.936;6.978;2024-01-30T14:12:14;13.90;;;6.07;;
20824;SDS011;10573;50.936;6.978;2024-01-30T14:14:40;13.30;;;6.13;;
20824;SDS011;10573;50.936;6.978;2024-01-30T14:17:06;12.60;;;5.55;;
20824;SDS011;10573;50.936;6.978;2024-01-30T14:19:34;11.98;;;5.68;;
20824;SDS011;10573;50.936;6.978;2024-01-30T14:22:01;10.50;;;5.00;;
20824;SDS011;10573;50.936;6.978;2024-01-30T14:24:26;8.33;;;4.80;;
20824;SDS011;10573;50.936;6.978;2024-01-30T14:26:52;9.13;;;4.70;;
20824;SDS011;10573;50.936;6.978;2024-01-30T14:29:17;11.33;;;4.80;;
20824;SDS011;10573;50.936;6.978;2024-01-30T14:31:43;9.33;;;4.57;;